Time;durP1;ratioP1;P1;durP2;ratioP2;P2;SDS_P1;SDS_P2;PMS_P1;PMS_P2;Temp;Humidity;BMP_temperature;BMP_pressure;BME280_temperature;BME280_humidity;BME280_pressure;Samples;Min_cycle;Max_cycle;Signal;HPM_P1;HPM_P2
2024/04/06 00:02:04;;;;;;;2.83;2.63;;;22.20;50.20;;;;;;5010358;28;20232;-58
2024/04/06 00:04:33;;;;;;;3.03;2.57;;;22.20;50.20;;;;;;5001659;28;20975;-62
2024/04/06 00:06:58;;;;;;;4.37;2.90;;;22.10;50.20;;;;;;5001329;28;20460;-61
2024/04/06 00:09:24;;;;;;;4.93;3.53;;;22.10;50.40;;;;;;5005518;28;21251;-57
2024/04/06 00:11:50;;;;;;;4.77;3.03;;;22.10;50.50;;;;;;5008326;28;20190;-60
2024/04/06 00:14:19;;;;;;;2.93;2.63;;;21.90;50.90;;;;;;5005653;28;21126;-58
2024/04/06 00:16:45;;;;;;;3.80;2.70;;;21.70;51.70;;;;;;5003728;28;20465;-58
2024/04/06 00:19:10;;;;;;;4.40;3.03;;;21.50;52.00;;;;;;5005818;28;20441;-59
2024/04/06 00:21:36;;;;;;;4.70;3.17;;;21.40;52.30;;;;;;5007821;28;21050;-61
2024/04/06 00:24:02;;;;;;;3.57;3.00;;;21.40;52.50;;;;;;5011870;28;21064;-58
2024/04/06 00:26:27;;;;;;;3.93;2.97;;;21.50;52.50;;;;;;5011634;28;20182;-60
2024/04/06 00:28:53;;;;;;;3.60;2.90;;;21.50;52.40;;;;;;5005322;28;20213;-60
2024/04/06 00:31:18;;;;;;;4.10;3.57;;;21.30;52.60;;;;;;5012178;28;20728;-56
2024/04/06 00:33:44;;;;;;;3.03;2.70;;;21.40;52.60;;;;;;5011269;28;20752;-61
2024/04/06 00:36:09;;;;;;;3.73;2.63;;;21.50;52.30;;;;;;5011469;28;20194;-60
2024/04/06 00:38:36;;;;;;;2.73;2.53;;;21.50;52.30;;;;;;5011850;28;20201;-60
2024/04/06 00:41:01;;;;;;;3.13;2.70;;;21.60;52.20;;;;;;5011563;28;20201;-58
2024/04/06 00:43:28;;;;;;;4.27;2.60;;;21.60;52.00;;;;;;5011464;28;20579;-59
2024/04/06 00:45:53;;;;;;;3.83;3.10;;;21.70;51.90;;;;;;5011031;28;20243;-59
2024/04/06 00:48:20;;;;;;;4.23;3.10;;;21.80;51.90;;;;;;5011663;28;20437;-57
2024/04/06 00:50:45;;;;;;;6.20;2.90;;;21.80;51.60;;;;;;5011615;28;20333;-60
2024/04/06 00:53:11;;;;;;;5.10;2.77;;;21.80;51.30;;;;;;5011497;28;20914;-56
2024/04/06 00:55:37;;;;;;;2.97;2.70;;;21.90;51.50;;;;;;5011035;28;20191;-59
2024/04/06 00:58:03;;;;;;;3.30;3.00;;;21.80;51.50;;;;;;5011078;28;20206;-59
2024/04/06 01:00:29;;;;;;;3.20;2.90;;;21.80;51.70;;;;;;5007897;28;20444;-62
2024/04/06 01:02:54;;;;;;;4.00;2.50;;;21.80;51.70;;;;;;5010874;28;20221;-61
2024/04/06 01:05:20;;;;;;;6.33;2.60;;;21.80;51.80;;;;;;5010262;28;20745;-60
2024/04/06 01:07:46;;;;;;;3.83;3.40;;;21.80;51.70;;;;;;5011127;28;20296;-58
2024/04/06 01:10:12;;;;;;;4.00;3.50;;;21.70;52.00;;;;;;4993581;28;20186;-58
2024/04/06 01:12:38;;;;;;;5.17;3.87;;;21.70;52.50;;;;;;5011687;28;20179;-58
2024/04/06 01:15:04;;;;;;;4.40;3.90;;;21.60;52.70;;;;;;4991080;28;20817;-58
2024/04/06 01:17:30;;;;;;;5.07;4.00;;;21.60;53.10;;;;;;5009379;28;20824;-58
2024/04/06 01:19:55;;;;;;;6.40;3.30;;;21.60;53.20;;;;;;5010006;28;20437;-59
2024/04/06 01:22:21;;;;;;;4.23;3.40;;;21.50;53.30;;;;;;5007315;28;20229;-58
2024/04/06 01:24:47;;;;;;;4.13;3.17;;;21.40;53.40;;;;;;5003349;28;20186;-59
2024/04/06 01:27:12;;;;;;;6.33;2.80;;;21.30;53.40;;;;;;5008392;28;20217;-60
2024/04/06 01:29:38;;;;;;;5.00;3.03;;;21.30;53.20;;;;;;5002780;28;20189;-58
2024/04/06 01:32:04;;;;;;;4.00;3.23;;;21.40;53.20;;;;;;5006306;28;20721;-57
2024/04/06 01:34:29;;;;;;;4.50;3.17;;;21.40;53.00;;;;;;5004254;28;20198;-58
2024/04/06 01:36:55;;;;;;;5.87;2.43;;;21.30;52.90;;;;;;5003818;28;20740;-61
2024/04/06 01:39:20;;;;;;;3.90;3.27;;;21.30;52.80;;;;;;5001897;28;20192;-61
2024/04/06 01:41:48;;;;;;;3.97;3.30;;;21.20;52.70;;;;;;5003061;28;20194;-60
2024/04/06 01:44:13;;;;;;;4.40;3.20;;;21.20;52.70;;;;;;5002794;28;20273;-60
2024/04/06 01:46:39;;;;;;;5.93;2.80;;;21.10;52.60;;;;;;5002306;28;20599;-60
2024/04/06 01:49:05;;;;;;;6.23;3.50;;;21.00;52.80;;;;;;5002178;28;20190;-58
2024/04/06 01:51:30;;;;;;;4.97;3.20;;;21.10;52.80;;;;;;5006186;28;20551;-58
2024/04/06 01:53:56;;;;;;;5.10;3.10;;;21.00;52.80;;;;;;5003542;28;20189;-58
2024/04/06 01:56:22;;;;;;;10.00;3.10;;;21.00;52.90;;;;;;5002823;28;20183;-59
2024/04/06 01:58:47;;;;;;;3.03;2.73;;;20.90;53.50;;;;;;5004406;28;20178;-60
2024/04/06 02:01:13;;;;;;;4.80;3.27;;;20.90;53.60;;;;;;5003714;28;20189;-61
2024/04/06 02:03:40;;;;;;;3.37;2.83;;;20.60;54.30;;;;;;5004608;28;20221;-58
2024/04/06 02:06:08;;;;;;;4.03;2.60;;;20.50;55.00;;;;;;5007036;28;20485;-57
2024/04/06 02:08:35;;;;;;;3.23;2.90;;;20.50;54.90;;;;;;5004913;28;20441;-58
2024/04/06 02:11:00;;;;;;;3.87;3.40;;;20.40;55.20;;;;;;5006833;28;20603;-60
2024/04/06 02:13:26;;;;;;;6.70;3.30;;;20.40;55.20;;;;;;5003012;28;20448;-61
2024/04/06 02:15:52;;;;;;;3.50;3.20;;;20.50;55.20;;;;;;5001658;28;20185;-58
2024/04/06 02:18:17;;;;;;;5.10;3.30;;;20.50;55.20;;;;;;5001965;28;20756;-60
2024/04/06 02:20:43;;;;;;;3.43;3.13;;;20.50;55.10;;;;;;5003073;28;20728;-60
2024/04/06 02:23:08;;;;;;;3.90;2.83;;;20.30;55.40;;;;;;5009662;28;20232;-55
2024/04/06 02:25:34;;;;;;;3.47;3.17;;;20.30;55.40;;;;;;5007242;28;20236;-58
2024/04/06 02:28:00;;;;;;;3.90;2.90;;;20.20;56.20;;;;;;5010083;28;20205;-59
2024/04/06 02:30:26;;;;;;;4.20;3.30;;;20.10;56.00;;;;;;5005617;28;20178;-60
2024/04/06 02:32:51;;;;;;;3.37;2.83;;;20.20;56.00;;;;;;5002179;28;20194;-61
2024/04/06 02:35:17;;;;;;;6.67;2.90;;;20.10;56.00;;;;;;5000801;28;20810;-57
2024/04/06 02:37:43;;;;;;;6.93;2.80;;;20.20;56.10;;;;;;5003215;28;20376;-58
2024/04/06 02:40:09;;;;;;;3.33;3.10;;;20.20;55.80;;;;;;5002948;28;20190;-59
2024/04/06 02:42:35;;;;;;;3.93;3.10;;;20.10;56.20;;;;;;5002751;28;20491;-59
2024/04/06 02:45:01;;;;;;;4.57;2.90;;;20.00;56.30;;;;;;5003112;28;20432;-59
2024/04/06 02:47:27;;;;;;;3.77;2.97;;;20.00;56.10;;;;;;5007481;28;20571;-57
2024/04/06 02:49:53;;;;;;;5.90;3.30;;;19.90;56.40;;;;;;5005869;28;20931;-57
2024/04/06 02:52:19;;;;;;;3.60;2.50;;;19.70;56.80;;;;;;5004990;28;20479;-58
2024/04/06 02:54:44;;;;;;;3.33;3.00;;;19.60;57.40;;;;;;5006954;28;20575;-57
2024/04/06 02:57:10;;;;;;;4.23;3.23;;;19.30;57.90;;;;;;5002656;28;20256;-59
2024/04/06 02:59:35;;;;;;;4.43;2.43;;;19.20;58.20;;;;;;5003985;28;20726;-57
2024/04/06 03:02:01;;;;;;;2.90;2.60;;;19.00;58.70;;;;;;5008200;28;20280;-57
2024/04/06 03:04:27;;;;;;;7.03;3.10;;;19.20;58.40;;;;;;5009366;28;20229;-60
2024/04/06 03:06:52;;;;;;;6.43;3.00;;;18.70;59.10;;;;;;5008870;28;20255;-61
2024/04/06 03:09:18;;;;;;;2.90;2.57;;;18.70;59.40;;;;;;5009334;28;20193;-57
2024/04/06 03:11:45;;;;;;;2.83;2.60;;;18.90;59.00;;;;;;5009412;28;20185;-58
2024/04/06 03:14:10;;;;;;;6.60;2.87;;;19.10;58.30;;;;;;5008898;28;20201;-62
2024/04/06 03:16:36;;;;;;;8.03;3.30;;;19.30;57.60;;;;;;5008960;28;20441;-60
2024/04/06 03:19:02;;;;;;;6.67;3.10;;;19.50;57.30;;;;;;5008492;28;20201;-55
2024/04/06 03:21:28;;;;;;;4.60;2.90;;;19.50;57.10;;;;;;5009597;28;20193;-60
2024/04/06 03:23:54;;;;;;;4.23;3.20;;;19.70;57.00;;;;;;5008998;28;20221;-58
2024/04/06 03:26:20;;;;;;;5.40;2.73;;;19.80;56.70;;;;;;5009010;28;20434;-57
2024/04/06 03:28:45;;;;;;;4.30;3.13;;;20.00;56.40;;;;;;5008253;28;20213;-57
2024/04/06 03:31:11;;;;;;;3.13;2.73;;;19.90;56.30;;;;;;5006241;28;20193;-57
2024/04/06 03:33:36;;;;;;;3.50;3.10;;;19.90;56.40;;;;;;5005388;28;20206;-62
2024/04/06 03:36:02;;;;;;;3.30;2.93;;;19.90;55.90;;;;;;5002439;28;20185;-57
2024/04/06 03:38:28;;;;;;;6.80;3.50;;;20.00;55.90;;;;;;5005133;28;21098;-59
2024/04/06 03:40:53;;;;;;;3.43;3.13;;;19.90;55.80;;;;;;5007085;28;20198;-60
2024/04/06 03:43:19;;;;;;;3.30;2.97;;;19.90;56.00;;;;;;5003568;28;20217;-60
2024/04/06 03:45:46;;;;;;;4.27;2.80;;;19.80;56.10;;;;;;5003255;28;20537;-60
2024/04/06 03:48:12;;;;;;;4.00;2.90;;;19.60;56.50;;;;;;5007527;28;20228;-57
2024/04/06 03:50:37;;;;;;;3.57;3.27;;;19.60;56.50;;;;;;5006723;28;20944;-60
2024/04/06 03:53:03;;;;;;;3.10;2.63;;;19.60;56.70;;;;;;5008412;28;20278;-58
2024/04/06 03:55:29;;;;;;;3.47;3.17;;;19.70;56.30;;;;;;5003409;28;20197;-61
2024/04/06 03:57:54;;;;;;;4.03;3.07;;;19.70;56.30;;;;;;5002137;28;20202;-60
2024/04/06 04:00:20;;;;;;;3.20;2.90;;;19.60;56.60;;;;;;5001984;28;20755;-59
2024/04/06 04:02:46;;;;;;;3.80;2.87;;;19.60;56.40;;;;;;5003805;28;20220;-61
2024/04/06 04:05:12;;;;;;;5.37;3.07;;;19.70;56.30;;;;;;5002621;28;20659;-61
2024/04/06 04:07:37;;;;;;;4.70;3.07;;;19.70;56.20;;;;;;5004444;28;20206;-60
2024/04/06 04:10:04;;;;;;;2.73;2.53;;;19.70;56.00;;;;;;5005545;28;20463;-61
2024/04/06 04:12:30;;;;;;;2.80;2.50;;;19.70;56.00;;;;;;5005126;28;20186;-61
2024/04/06 04:14:57;;;;;;;2.97;2.67;;;19.50;56.20;;;;;;5002667;28;21251;-58
2024/04/06 04:17:23;;;;;;;4.93;2.53;;;19.60;55.90;;;;;;5004494;28;20507;-60
2024/04/06 04:19:48;;;;;;;3.97;2.90;;;19.70;55.70;;;;;;5006801;28;20976;-58
2024/04/06 04:22:14;;;;;;;4.03;3.00;;;19.60;55.60;;;;;;5010338;28;20225;-60
2024/04/06 04:24:40;;;;;;;4.60;2.90;;;19.50;55.60;;;;;;5012606;28;20236;-59
2024/04/06 04:27:06;;;;;;;3.00;2.70;;;19.60;55.60;;;;;;5010885;28;20499;-61
2024/04/06 04:29:32;;;;;;;3.97;2.80;;;19.60;55.50;;;;;;5006728;28;20480;-60
2024/04/06 04:31:57;;;;;;;3.13;2.70;;;19.50;55.40;;;;;;5011220;28;20178;-61
2024/04/06 04:34:23;;;;;;;2.83;2.57;;;19.50;55.10;;;;;;5011964;28;20189;-60
2024/04/06 04:36:48;;;;;;;4.53;2.70;;;19.40;55.30;;;;;;5010830;28;20236;-59
2024/04/06 04:39:14;;;;;;;3.23;2.90;;;19.30;55.40;;;;;;5011737;28;20197;-59
2024/04/06 04:41:45;;;;;;;3.77;2.63;;;19.30;55.20;;;;;;5011926;28;20204;-63
2024/04/06 04:44:11;;;;;;;2.80;2.60;;;19.20;55.40;;;;;;5011602;28;20214;-59
2024/04/06 04:46:37;;;;;;;3.93;2.40;;;19.40;55.10;;;;;;5012323;28;20444;-60
2024/04/06 04:49:02;;;;;;;3.00;2.80;;;19.30;54.70;;;;;;5011429;28;20186;-58
2024/04/06 04:51:28;;;;;;;3.07;2.73;;;19.30;54.80;;;;;;5011670;28;20193;-61
2024/04/06 04:53:54;;;;;;;2.83;2.60;;;19.30;55.00;;;;;;5011504;28;20186;-61
2024/04/06 04:56:20;;;;;;;2.80;2.60;;;19.30;55.00;;;;;;5011220;28;20189;-58
2024/04/06 04:58:47;;;;;;;3.70;2.60;;;19.00;55.30;;;;;;5010670;28;20432;-58
2024/04/06 05:01:13;;;;;;;3.63;2.70;;;19.00;55.70;;;;;;5009641;28;20441;-60
2024/04/06 05:03:38;;;;;;;2.63;2.37;;;18.90;56.20;;;;;;5011826;28;20498;-58
2024/04/06 05:06:05;;;;;;;3.40;3.07;;;18.80;56.30;;;;;;5011000;28;20850;-59
2024/04/06 05:08:30;;;;;;;3.00;2.77;;;18.60;56.40;;;;;;5011597;28;20202;-61
2024/04/06 05:10:56;;;;;;;4.27;2.67;;;18.40;56.70;;;;;;5011317;28;20508;-61
2024/04/06 05:13:22;;;;;;;6.67;2.60;;;18.10;57.60;;;;;;5011625;28;20264;-58
2024/04/06 05:15:48;;;;;;;9.00;3.07;;;18.00;58.10;;;;;;5009146;28;20194;-57
2024/04/06 05:18:14;;;;;;;4.97;2.27;;;17.90;58.20;;;;;;5013647;28;20293;-61
2024/04/06 05:20:48;;;;;;;8.80;2.80;;;17.90;58.40;;;;;;5009037;28;20524;-58
2024/04/06 05:23:13;;;;;;;3.07;2.87;;;18.00;58.30;;;;;;5004897;28;20284;-56
2024/04/06 05:25:39;;;;;;;7.43;4.10;;;18.00;58.20;;;;;;5005856;28;20433;-57
2024/04/06 05:28:05;;;;;;;5.00;3.27;;;18.20;58.10;;;;;;5003201;28;20229;-58
2024/04/06 05:30:30;;;;;;;6.03;3.33;;;18.40;58.00;;;;;;5004017;28;20332;-60
2024/04/06 05:32:56;;;;;;;2.60;2.40;;;18.50;57.50;;;;;;5003301;28;20193;-59
2024/04/06 05:35:21;;;;;;;3.20;2.50;;;18.60;57.10;;;;;;5002093;28;20193;-57
2024/04/06 05:37:47;;;;;;;6.63;2.70;;;18.80;56.80;;;;;;5004580;28;20198;-59
2024/04/06 05:40:12;;;;;;;4.57;3.10;;;18.80;56.50;;;;;;5005378;28;20189;-56
2024/04/06 05:42:38;;;;;;;4.80;2.53;;;18.70;56.70;;;;;;5010914;28;20214;-59
2024/04/06 05:45:04;;;;;;;3.40;3.10;;;18.80;56.60;;;;;;5009708;28;20221;-56
2024/04/06 05:47:29;;;;;;;2.90;2.40;;;18.80;56.60;;;;;;5007773;28;20359;-57
2024/04/06 05:49:55;;;;;;;3.93;3.03;;;18.80;56.60;;;;;;5008650;28;20225;-60
2024/04/06 05:52:20;;;;;;;2.30;2.10;;;18.90;56.30;;;;;;5010859;28;20189;-59
2024/04/06 05:54:46;;;;;;;7.97;3.10;;;18.90;56.10;;;;;;5009255;28;20305;-59
2024/04/06 05:57:11;;;;;;;4.67;2.50;;;18.80;56.50;;;;;;5008136;28;20721;-57
2024/04/06 05:59:37;;;;;;;4.47;3.07;;;18.70;56.80;;;;;;5007816;28;20193;-58
2024/04/06 06:02:03;;;;;;;3.00;2.40;;;18.80;56.70;;;;;;5008919;28;20255;-60
2024/04/06 06:04:29;;;;;;;3.20;2.73;;;18.80;56.50;;;;;;5007061;28;20186;-59
2024/04/06 06:06:54;;;;;;;3.93;2.80;;;19.00;56.40;;;;;;5009025;28;21030;-60
2024/04/06 06:09:20;;;;;;;5.27;3.10;;;19.10;56.10;;;;;;5009172;28;20182;-58
2024/04/06 06:11:46;;;;;;;3.27;2.27;;;18.90;56.60;;;;;;5008631;28;20240;-59
2024/04/06 06:14:12;;;;;;;3.03;2.40;;;18.90;56.40;;;;;;5008817;28;20554;-59
2024/04/06 06:16:37;;;;;;;5.20;3.00;;;19.00;56.20;;;;;;5007174;28;20457;-59
2024/04/06 06:19:03;;;;;;;4.10;2.50;;;19.10;56.00;;;;;;5009730;28;21168;-59
2024/04/06 06:21:29;;;;;;;7.93;3.67;;;19.10;55.90;;;;;;5010094;28;20205;-59
2024/04/06 06:23:56;;;;;;;2.67;2.50;;;19.10;55.60;;;;;;5007045;28;20218;-60
2024/04/06 06:26:22;;;;;;;2.73;2.30;;;19.10;55.80;;;;;;5008283;28;20441;-59
2024/04/06 06:28:47;;;;;;;3.03;2.73;;;18.80;56.10;;;;;;5009871;28;20421;-60
2024/04/06 06:31:13;;;;;;;4.00;3.20;;;19.00;56.70;;;;;;5010194;28;20182;-61
2024/04/06 06:33:38;;;;;;;5.30;2.80;;;19.30;55.90;;;;;;5009589;28;20190;-59
2024/04/06 06:36:04;;;;;;;4.83;2.70;;;19.30;55.50;;;;;;5008450;28;20639;-56
2024/04/06 06:38:30;;;;;;;5.17;2.80;;;19.30;55.80;;;;;;5010493;28;20264;-59
2024/04/06 06:40:55;;;;;;;5.70;2.73;;;19.40;55.40;;;;;;5009690;28;20578;-60
2024/04/06 06:43:21;;;;;;;3.33;2.67;;;19.50;55.30;;;;;;5006984;28;20222;-59
2024/04/06 06:45:47;;;;;;;3.40;3.10;;;19.60;55.10;;;;;;5009410;28;20186;-59
2024/04/06 06:48:12;;;;;;;3.87;2.20;;;19.70;55.00;;;;;;5010037;28;20301;-57
2024/04/06 06:50:38;;;;;;;3.50;2.50;;;19.70;54.80;;;;;;5009685;28;20206;-58
2024/04/06 06:53:04;;;;;;;3.30;2.30;;;19.50;54.50;;;;;;5009285;28;20193;-59
2024/04/06 06:55:30;;;;;;;3.13;2.80;;;19.50;55.00;;;;;;5009378;28;20185;-59
2024/04/06 06:57:56;;;;;;;5.70;2.30;;;19.30;55.00;;;;;;5009153;28;20544;-57
2024/04/06 07:00:21;;;;;;;3.90;2.60;;;19.60;55.00;;;;;;5008282;28;20528;-59
2024/04/06 07:02:47;;;;;;;3.13;2.43;;;19.90;54.40;;;;;;5009025;28;20228;-61
2024/04/06 07:05:13;;;;;;;5.20;3.07;;;20.20;53.90;;;;;;5009027;28;20570;-57
2024/04/06 07:07:38;;;;;;;2.40;2.20;;;20.50;53.20;;;;;;5008954;28;20205;-60
2024/04/06 07:10:04;;;;;;;2.37;2.17;;;20.90;52.90;;;;;;5009291;28;20190;-57
2024/04/06 07:12:31;;;;;;;3.47;2.40;;;21.00;52.30;;;;;;5008280;28;20198;-58
2024/04/06 07:14:57;;;;;;;2.20;2.00;;;21.20;51.90;;;;;;5005130;28;20813;-58
2024/04/06 07:17:23;;;;;;;3.20;2.27;;;21.40;51.20;;;;;;5007655;28;20445;-59
2024/04/06 07:19:49;;;;;;;4.73;2.43;;;21.60;50.70;;;;;;5008290;28;20197;-60
2024/04/06 07:22:15;;;;;;;3.07;1.70;;;21.80;50.50;;;;;;5009515;28;20225;-59
2024/04/06 07:24:42;;;;;;;3.67;2.30;;;22.00;50.30;;;;;;5007461;28;20507;-59
2024/04/06 07:27:08;;;;;;;6.20;2.13;;;22.20;49.90;;;;;;5006943;28;20198;-63
2024/04/06 07:29:33;;;;;;;2.20;2.00;;;22.40;49.50;;;;;;5008288;28;20436;-61
2024/04/06 07:31:59;;;;;;;3.80;2.60;;;22.50;49.00;;;;;;5006555;28;20437;-60
2024/04/06 07:34:24;;;;;;;2.70;2.10;;;22.40;49.40;;;;;;5007772;28;20564;-59
2024/04/06 07:36:50;;;;;;;2.43;1.80;;;22.50;49.30;;;;;;5007790;28;20255;-60
2024/04/06 07:39:16;;;;;;;3.17;1.87;;;22.80;49.10;;;;;;5010334;28;20186;-58
2024/04/06 07:41:41;;;;;;;5.37;2.03;;;23.00;49.00;;;;;;5011615;28;20206;-59
2024/04/06 07:44:07;;;;;;;2.60;2.10;;;22.90;48.90;;;;;;5010531;28;20224;-60
2024/04/06 07:46:33;;;;;;;3.30;2.27;;;23.10;48.50;;;;;;5010921;28;20202;-60
2024/04/06 07:48:58;;;;;;;2.73;2.00;;;23.40;48.60;;;;;;5011434;28;20194;-58
2024/04/06 07:51:24;;;;;;;3.50;2.23;;;23.40;47.00;;;;;;5013083;28;20503;-60
2024/04/06 07:53:49;;;;;;;2.93;2.63;;;23.60;46.80;;;;;;5011759;28;20193;-59
2024/04/06 07:56:15;;;;;;;2.73;2.20;;;23.80;47.10;;;;;;5006195;28;20190;-62
2024/04/06 07:58:41;;;;;;;4.00;2.13;;;24.00;47.10;;;;;;5012176;28;20236;-57
2024/04/06 08:01:06;;;;;;;2.73;2.30;;;23.80;45.10;;;;;;5011873;28;20703;-58
2024/04/06 08:03:32;;;;;;;2.60;2.40;;;23.60;45.60;;;;;;5012759;28;20614;-63
2024/04/06 08:06:01;;;;;;;2.77;1.90;;;23.50;46.10;;;;;;5010870;28;20194;-59
2024/04/06 08:08:27;;;;;;;2.97;1.80;;;23.70;46.50;;;;;;4994826;28;20708;-58
2024/04/06 08:10:53;;;;;;;3.90;2.03;;;24.00;45.10;;;;;;5012254;28;20441;-61
2024/04/06 08:13:18;;;;;;;2.60;1.90;;;24.20;44.60;;;;;;5011117;28;20240;-61
2024/04/06 08:15:45;;;;;;;1.83;1.60;;;24.20;43.60;;;;;;5010582;28;20284;-59
2024/04/06 08:18:10;;;;;;;7.47;2.30;;;24.20;44.30;;;;;;5012219;28;20218;-59
2024/04/06 08:20:36;;;;;;;3.40;1.80;;;24.60;44.50;;;;;;5011363;28;20479;-60
2024/04/06 08:23:02;;;;;;;3.53;1.60;;;24.80;44.20;;;;;;5007889;28;20210;-57
2024/04/06 08:25:27;;;;;;;1.93;1.50;;;25.00;43.80;;;;;;5006208;28;20189;-59
2024/04/06 08:27:53;;;;;;;2.47;1.77;;;25.20;43.60;;;;;;5008500;28;20799;-60
2024/04/06 08:30:19;;;;;;;3.97;1.80;;;25.10;42.30;;;;;;5005850;28;20189;-59
2024/04/06 08:32:45;;;;;;;8.30;1.80;;;25.20;42.40;;;;;;5009709;28;20194;-60
2024/04/06 08:35:12;;;;;;;2.37;1.90;;;24.70;42.90;;;;;;5007312;28;20194;-62
2024/04/06 08:37:41;;;;;;;2.17;1.80;;;25.00;43.40;;;;;;5009180;28;21053;-57
2024/04/06 08:40:09;;;;;;;2.07;1.87;;;25.40;42.00;;;;;;5007204;28;20552;-62
2024/04/06 08:42:40;;;;;;;2.80;1.83;;;25.60;42.30;;;;;;5010317;28;20484;-60
2024/04/06 08:45:08;;;;;;;2.20;2.00;;;25.90;41.90;;;;;;5004810;28;20453;-62
2024/04/06 08:47:34;;;;;;;2.00;1.80;;;26.00;41.60;;;;;;4988704;28;20880;-57
2024/04/06 08:50:08;;;;;;;2.43;1.77;;;26.20;41.40;;;;;;5010437;28;20436;-60
2024/04/06 08:52:37;;;;;;;2.27;2.00;;;26.10;40.90;;;;;;5011336;28;20510;-61
2024/04/06 08:55:04;;;;;;;3.63;1.80;;;25.80;41.90;;;;;;5009087;28;20438;-61
2024/04/06 08:57:37;;;;;;;4.37;1.80;;;25.90;42.20;;;;;;5010088;28;20998;-58
2024/04/06 09:00:08;;;;;;;4.93;1.83;;;25.90;41.30;;;;;;5007545;28;20444;-60
2024/04/06 09:02:34;;;;;;;1.97;1.73;;;26.10;40.60;;;;;;5010184;28;20921;-59
2024/04/06 09:05:00;;;;;;;2.37;2.17;;;26.10;40.20;;;;;;5009785;28;20433;-60
2024/04/06 09:07:26;;;;;;;1.67;1.57;;;26.20;40.80;;;;;;5008741;28;20551;-56
2024/04/06 09:09:53;;;;;;;2.23;1.53;;;26.50;39.60;;;;;;5009811;28;21024;-60
2024/04/06 09:12:19;;;;;;;1.80;1.63;;;26.70;39.50;;;;;;5009304;28;20507;-61
2024/04/06 09:14:46;;;;;;;2.30;1.77;;;27.00;39.30;;;;;;5010897;28;20432;-58
2024/04/06 09:17:18;;;;;;;3.13;1.83;;;27.10;40.50;;;;;;5010083;28;20214;-59
2024/04/06 09:19:44;;;;;;;3.13;1.60;;;27.40;39.30;;;;;;5009204;28;20448;-58
2024/04/06 09:22:10;;;;;;;1.70;1.60;;;27.70;38.50;;;;;;5009014;28;20428;-57
2024/04/06 09:24:37;;;;;;;7.83;2.67;;;27.60;37.40;;;;;;5010091;28;20285;-59
2024/04/06 09:27:05;;;;;;;3.70;2.20;;;27.80;37.70;;;;;;5008126;28;20461;-61
2024/04/06 09:29:31;;;;;;;1.77;1.60;;;28.00;37.00;;;;;;5007857;28;20540;-57
2024/04/06 09:32:01;;;;;;;2.00;1.50;;;28.10;36.70;;;;;;5008227;28;20920;-57
2024/04/06 09:34:27;;;;;;;4.13;1.97;;;28.30;36.80;;;;;;5009661;28;20224;-58
2024/04/06 09:37:01;;;;;;;2.17;1.80;;;28.50;35.70;;;;;;5008768;28;20504;-59
2024/04/06 09:39:30;;;;;;;2.67;2.00;;;28.70;35.40;;;;;;5008866;28;20272;-57
2024/04/06 09:41:56;;;;;;;3.13;2.00;;;28.90;35.90;;;;;;5008765;28;20464;-61
2024/04/06 09:44:22;;;;;;;2.20;1.90;;;29.00;35.00;;;;;;5005117;28;21623;-59
2024/04/06 09:46:49;;;;;;;1.80;1.70;;;29.10;33.60;;;;;;5007006;28;20457;-60
2024/04/06 09:49:15;;;;;;;2.30;1.80;;;29.20;33.00;;;;;;5009197;28;20519;-59
2024/04/06 09:51:41;;;;;;;1.53;1.43;;;29.20;32.60;;;;;;5008027;28;20433;-60
2024/04/06 09:54:07;;;;;;;1.93;1.33;;;29.30;32.90;;;;;;5009736;28;20445;-57
2024/04/06 09:56:32;;;;;;;1.93;1.60;;;29.50;31.60;;;;;;5007278;28;20835;-63
2024/04/06 09:58:58;;;;;;;2.13;1.50;;;29.60;31.50;;;;;;5008445;28;20194;-58
2024/04/06 10:01:27;;;;;;;2.83;2.07;;;29.80;31.50;;;;;;5010221;28;20186;-60
2024/04/06 10:03:52;;;;;;;1.63;1.47;;;29.70;30.30;;;;;;5009719;28;20225;-61
2024/04/06 10:06:19;;;;;;;3.63;1.50;;;29.80;30.90;;;;;;5006743;28;20436;-61
2024/04/06 10:09:09;;;;;;;1.70;1.60;;;29.80;30.00;;;;;;5009527;28;20189;-59
2024/04/06 10:11:36;;;;;;;1.70;1.60;;;30.00;30.90;;;;;;5007973;28;20971;-60
2024/04/06 10:14:03;;;;;;;4.67;1.60;;;30.10;29.80;;;;;;5008947;28;20540;-61
2024/04/06 10:16:32;;;;;;;1.40;1.30;;;30.30;32.80;;;;;;5004908;28;20606;-61
2024/04/06 10:19:01;;;;;;;1.93;1.70;;;30.40;34.90;;;;;;5005648;28;20433;-60
2024/04/06 10:21:31;;;;;;;3.00;1.57;;;30.10;30.70;;;;;;5004887;28;20542;-59
2024/04/06 10:23:57;;;;;;;1.60;1.50;;;29.80;33.30;;;;;;5005153;28;20492;-59
2024/04/06 10:26:22;;;;;;;3.00;1.80;;;30.10;29.30;;;;;;5007298;28;20540;-60
2024/04/06 10:28:49;;;;;;;2.23;1.67;;;30.40;29.00;;;;;;5007809;28;20284;-60
2024/04/06 10:31:15;;;;;;;2.13;1.67;;;30.70;28.40;;;;;;5009435;28;20650;-59
2024/04/06 10:33:40;;;;;;;2.97;1.63;;;31.00;28.90;;;;;;5010246;28;20424;-61
2024/04/06 10:36:10;;;;;;;2.70;1.90;;;31.20;28.50;;;;;;5004855;28;20198;-59
2024/04/06 10:38:38;;;;;;;1.73;1.63;;;31.40;28.00;;;;;;5008539;28;20218;-60
2024/04/06 10:41:03;;;;;;;2.83;1.87;;;31.40;27.40;;;;;;5008784;28;20990;-59
2024/04/06 10:43:31;;;;;;;2.53;1.80;;;31.30;28.20;;;;;;5010120;28;20571;-60
2024/04/06 10:45:56;;;;;;;2.20;1.63;;;31.30;27.40;;;;;;5005661;28;20182;-62
2024/04/06 10:48:22;;;;;;;2.13;1.83;;;31.10;27.20;;;;;;5009373;28;20447;-61
2024/04/06 10:50:48;;;;;;;2.03;1.73;;;31.20;27.20;;;;;;5008796;28;20182;-60
2024/04/06 10:53:13;;;;;;;1.83;1.60;;;31.30;26.80;;;;;;5008889;28;20194;-61
2024/04/06 10:55:42;;;;;;;1.97;1.80;;;31.60;27.50;;;;;;5005628;28;20206;-61
2024/04/06 10:58:09;;;;;;;1.73;1.63;;;31.50;26.90;;;;;;5005964;28;20206;-60
2024/04/06 11:00:39;;;;;;;2.10;2.00;;;31.30;26.70;;;;;;5008897;28;20475;-62
2024/04/06 11:03:07;;;;;;;4.10;1.40;;;31.50;27.50;;;;;;5008521;28;21010;-62
2024/04/06 11:05:36;;;;;;;1.53;1.43;;;31.70;26.80;;;;;;5007805;28;20440;-62
2024/04/06 11:08:06;;;;;;;2.60;1.57;;;31.80;26.70;;;;;;5010181;28;20432;-60
2024/04/06 11:10:32;;;;;;;2.40;1.77;;;31.90;26.90;;;;;;5009250;28;20456;-63
2024/04/06 11:12:59;;;;;;;2.10;1.90;;;32.10;26.40;;;;;;5010947;28;20448;-61
2024/04/06 11:15:28;;;;;;;1.60;1.40;;;31.70;25.90;;;;;;5012459;28;20437;-61
2024/04/06 11:17:55;;;;;;;1.30;1.20;;;31.90;26.40;;;;;;5013515;28;20468;-60
2024/04/06 11:20:21;;;;;;;1.30;1.10;;;32.00;24.90;;;;;;5012605;28;20531;-63
2024/04/06 11:22:47;;;;;;;7.63;1.50;;;32.00;24.10;;;;;;5010912;28;20477;-62
2024/04/06 11:25:17;;;;;;;1.97;1.30;;;31.90;24.10;;;;;;5012010;28;20604;-63
2024/04/06 11:27:52;;;;;;;1.73;1.60;;;31.60;23.20;;;;;;5011294;28;20209;-62
2024/04/06 11:30:19;;;;;;;1.50;1.23;;;31.80;23.90;;;;;;5009417;28;20448;-60
2024/04/06 11:32:48;;;;;;;1.37;1.27;;;32.00;24.00;;;;;;5012870;28;20447;-62
2024/04/06 11:35:14;;;;;;;2.03;1.53;;;31.50;22.60;;;;;;5011111;28;20448;-59
2024/04/06 11:37:40;;;;;;;1.40;1.30;;;31.50;23.60;;;;;;5012304;28;20477;-59
2024/04/06 11:40:07;;;;;;;1.77;1.60;;;31.60;23.70;;;;;;5012103;28;20194;-59
2024/04/06 11:42:33;;;;;;;1.30;1.20;;;32.00;23.70;;;;;;5011766;28;20523;-62
2024/04/06 11:44:59;;;;;;;2.57;1.40;;;32.10;22.30;;;;;;5011579;28;20910;-62
2024/04/06 11:47:25;;;;;;;1.20;1.10;;;32.00;21.20;;;;;;5012099;28;20491;-62
2024/04/06 11:49:51;;;;;;;1.40;1.30;;;31.90;22.20;;;;;;5007865;28;20506;-61
2024/04/06 11:52:17;;;;;;;2.87;1.20;;;31.70;21.60;;;;;;5011916;28;20873;-62
2024/04/06 11:54:43;;;;;;;1.30;1.20;;;31.70;21.90;;;;;;5012518;28;20190;-64
2024/04/06 11:57:08;;;;;;;1.80;1.37;;;31.70;21.90;;;;;;5009795;28;20736;-62
2024/04/06 11:59:34;;;;;;;1.50;1.20;;;31.70;22.00;;;;;;5012475;28;20684;-60
2024/04/06 12:02:00;;;;;;;3.10;2.83;;;32.00;21.40;;;;;;5011126;28;20196;-59
2024/04/06 12:04:25;;;;;;;1.97;1.77;;;32.40;21.60;;;;;;5009638;28;20214;-58
2024/04/06 12:06:52;;;;;;;2.63;1.40;;;32.40;21.80;;;;;;5008207;28;20677;-61
2024/04/06 12:09:18;;;;;;;2.00;1.33;;;32.70;21.60;;;;;;5008100;28;20547;-60
2024/04/06 12:11:44;;;;;;;2.67;1.30;;;33.00;21.90;;;;;;5009454;28;20896;-60
2024/04/06 12:14:09;;;;;;;1.43;1.30;;;33.20;21.30;;;;;;5009315;28;20522;-60
2024/04/06 12:16:35;;;;;;;2.17;1.40;;;33.40;21.80;;;;;;5007090;28;20220;-62
2024/04/06 12:19:00;;;;;;;1.97;1.77;;;33.70;21.80;;;;;;5008076;28;20288;-59
2024/04/06 12:21:27;;;;;;;1.67;1.50;;;33.50;21.50;;;;;;5009273;28;20182;-62
2024/04/06 12:23:53;;;;;;;1.63;1.53;;;33.60;21.70;;;;;;5009433;28;20782;-60
2024/04/06 12:26:18;;;;;;;2.00;1.23;;;33.60;21.70;;;;;;5011341;28;20431;-62
2024/04/06 12:28:45;;;;;;;2.20;2.00;;;33.70;21.60;;;;;;5007116;28;20948;-60
2024/04/06 12:31:10;;;;;;;1.50;1.40;;;33.60;21.50;;;;;;4992395;28;20205;-62
2024/04/06 12:33:36;;;;;;;1.60;1.50;;;33.60;22.00;;;;;;5010614;28;20441;-62
2024/04/06 12:36:03;;;;;;;2.60;1.40;;;33.80;21.70;;;;;;5009979;28;20209;-63
2024/04/06 12:38:28;;;;;;;1.43;1.30;;;33.90;21.50;;;;;;5009907;28;20639;-59
2024/04/06 12:40:55;;;;;;;2.33;1.57;;;33.60;21.60;;;;;;5008913;28;20551;-61
2024/04/06 12:43:21;;;;;;;1.77;1.20;;;33.70;22.30;;;;;;5010730;28;20229;-61